Terminal Aerodrome Forecast
Issued by NWS Lake Charles, LA

Home | Current Version | Previous Version | Text Only | Print | Product List | Glossary On
Versions: 1 2 3 4 5 6 7 8 9 10 11 12 13 14 15 16 17 18 19 20
000
FTUS44 KLCH 211740
TAFAEX
TAF
KAEX 211740Z 2118/2218 15012KT P6SM BKN025
     FM212100 17010KT P6SM VCTS BKN025CB
     FM220100 20008KT P6SM SCT015
     FM220500 22008KT P6SM VCTS SCT015CB
     FM220900 25012G18KT P6SM SCT250
     FM221500 26014G20KT P6SM SKC=

USA.gov is the U.S. government's official web portal to all federal, state and local government web resources and services.